createdAt,value
2019-04-10T00:00:37.310Z,11.47
2019-04-10T00:03:06.282Z,10.20
2019-04-10T00:05:36.095Z,9.47
2019-04-10T00:08:06.036Z,10.03
2019-04-10T00:10:34.870Z,10.57
2019-04-10T00:13:04.484Z,9.35
2019-04-10T00:15:33.162Z,10.30
2019-04-10T00:18:02.020Z,10.03
2019-04-10T00:20:30.455Z,9.20
2019-04-10T00:22:59.049Z,9.98
2019-04-10T00:25:28.428Z,10.70
2019-04-10T00:27:59.055Z,9.80
2019-04-10T00:30:27.701Z,11.18
2019-04-10T00:32:56.495Z,10.23
2019-04-10T00:35:25.579Z,9.75
2019-04-10T00:37:54.219Z,9.73
2019-04-10T00:40:23.565Z,10.68
2019-04-10T00:42:52.190Z,10.15
2019-04-10T00:45:21.645Z,10.15
2019-04-10T00:47:51.075Z,9.05
2019-04-10T00:50:20.231Z,10.60
2019-04-10T00:52:48.867Z,8.65
2019-04-10T00:55:17.580Z,9.70
2019-04-10T00:57:46.141Z,9.15
2019-04-10T01:00:14.949Z,9.80
2019-04-10T01:02:43.511Z,8.85
2019-04-10T01:05:13.126Z,9.78
2019-04-10T01:07:44.196Z,9.98
2019-04-10T01:10:12.286Z,8.98
2019-04-10T01:12:40.865Z,10.03
2019-04-10T01:15:10.016Z,10.45
2019-04-10T01:17:38.727Z,9.90
2019-04-10T01:20:07.520Z,10.48
2019-04-10T01:22:36.224Z,9.93
2019-04-10T01:25:06.171Z,9.33
2019-04-10T01:27:34.783Z,9.20
2019-04-10T01:30:07.041Z,9.18
2019-04-10T01:32:36.295Z,8.88
2019-04-10T01:35:06.230Z,9.53
2019-04-10T01:37:46.681Z,8.78
2019-04-10T01:40:09.293Z,8.88
2019-04-10T01:42:38.827Z,9.10
2019-04-10T01:45:07.755Z,9.88
2019-04-10T01:47:37.208Z,10.08
2019-04-10T01:50:06.387Z,9.00
2019-04-10T01:52:35.387Z,9.30
2019-04-10T01:55:17.275Z,8.98
2019-04-10T01:57:34.822Z,9.05
2019-04-10T02:00:04.698Z,9.58
2019-04-10T02:02:47.657Z,9.85
2019-04-10T02:05:16.590Z,9.18
2019-04-10T02:07:58.679Z,9.80
2019-04-10T02:10:16.921Z,10.60
2019-04-10T02:12:45.651Z,9.88
2019-04-10T02:15:15.846Z,10.30
2019-04-10T02:17:44.661Z,9.75
2019-04-10T02:20:13.321Z,11.65
2019-04-10T02:22:41.875Z,10.05
2019-04-10T02:25:11.370Z,9.70
2019-04-10T02:27:40.580Z,9.35
2019-04-10T02:30:12.705Z,10.38
2019-04-10T02:32:45.157Z,10.32
2019-04-10T02:35:16.528Z,9.53
2019-04-10T02:37:43.419Z,10.40
2019-04-10T02:40:13.101Z,8.93
2019-04-10T02:42:43.171Z,9.58
2019-04-10T02:45:12.633Z,9.98
2019-04-10T02:47:43.263Z,10.35
2019-04-10T02:50:14.045Z,10.10
2019-04-10T02:52:43.360Z,10.38
2019-04-10T02:55:12.160Z,10.93
2019-04-10T02:57:43.520Z,9.83
2019-04-10T03:00:13.927Z,10.38
2019-04-10T03:02:42.963Z,10.32
2019-04-10T03:05:13.586Z,9.80
2019-04-10T03:07:42.392Z,10.35
2019-04-10T03:10:20.438Z,9.55
2019-04-10T03:12:41.755Z,9.58
2019-04-10T03:15:12.675Z,9.13
2019-04-10T03:17:42.082Z,9.43
2019-04-10T03:20:11.047Z,9.10
2019-04-10T03:22:39.596Z,11.38
2019-04-10T03:25:08.891Z,10.75
2019-04-10T03:27:38.686Z,9.73
2019-04-10T03:30:10.078Z,10.50
2019-04-10T03:32:48.040Z,10.45
2019-04-10T03:35:34.550Z,10.70
2019-04-10T03:38:03.254Z,10.72
2019-04-10T03:40:31.878Z,11.28
2019-04-10T03:43:01.489Z,10.60
2019-04-10T03:45:30.774Z,10.95
2019-04-10T03:48:00.001Z,11.10
2019-04-10T03:50:28.533Z,11.30
2019-04-10T03:52:57.943Z,10.32
2019-04-10T03:55:27.112Z,11.63
2019-04-10T03:57:55.710Z,14.50
2019-04-10T04:00:24.268Z,12.20
2019-04-10T04:02:53.711Z,11.18
2019-04-10T04:05:22.512Z,13.00
2019-04-10T04:07:51.069Z,12.75
2019-04-10T04:10:20.478Z,12.40
2019-04-10T04:12:49.186Z,11.80
2019-04-10T04:15:17.852Z,11.68
2019-04-10T04:17:46.559Z,11.97
2019-04-10T04:20:15.183Z,11.90
2019-04-10T04:22:43.740Z,11.20
2019-04-10T04:25:12.865Z,12.45
2019-04-10T04:27:42.019Z,12.00
2019-04-10T04:30:11.152Z,12.00
2019-04-10T04:32:40.096Z,11.30
2019-04-10T04:35:09.108Z,11.95
2019-04-10T04:37:37.995Z,12.03
2019-04-10T04:40:06.916Z,12.35
2019-04-10T04:42:35.513Z,11.80
2019-04-10T04:45:05.223Z,12.05
2019-04-10T04:47:33.833Z,11.05
2019-04-10T04:50:03.557Z,12.60
2019-04-10T04:52:32.784Z,13.03
2019-04-10T04:55:01.940Z,11.65
2019-04-10T04:57:31.241Z,11.70
2019-04-10T05:00:01.133Z,11.55
2019-04-10T05:02:30.316Z,11.05
2019-04-10T05:04:58.976Z,11.55
2019-04-10T05:07:27.523Z,13.20
2019-04-10T05:09:58.743Z,11.12
2019-04-10T05:12:27.599Z,12.50
2019-04-10T05:14:56.322Z,10.45
2019-04-10T05:17:24.882Z,10.80
2019-04-10T05:19:54.503Z,11.50
2019-04-10T05:22:23.117Z,11.28
2019-04-10T05:24:52.314Z,11.20
2019-04-10T05:27:20.975Z,12.18
2019-04-10T05:29:50.505Z,12.15
2019-04-10T05:32:19.110Z,11.50
2019-04-10T05:34:47.707Z,10.80
2019-04-10T05:37:16.257Z,11.35
2019-04-10T05:39:49.926Z,10.50
2019-04-10T05:42:15.251Z,11.15
2019-04-10T05:44:44.346Z,10.10
2019-04-10T05:47:13.670Z,10.58
2019-04-10T05:49:42.351Z,10.78
2019-04-10T05:52:10.901Z,10.55
2019-04-10T05:54:39.636Z,10.90
2019-04-10T05:57:08.378Z,9.70
2019-04-10T05:59:36.959Z,9.70
2019-04-10T06:02:06.792Z,9.30
2019-04-10T06:04:35.751Z,8.93
2019-04-10T06:07:05.262Z,9.70
2019-04-10T06:09:33.920Z,9.65
2019-04-10T06:12:04.109Z,9.60
2019-04-10T06:14:32.597Z,9.80
2019-04-10T06:17:04.086Z,9.40
2019-04-10T06:19:32.386Z,9.80
2019-04-10T06:22:01.104Z,9.07
2019-04-10T06:24:29.951Z,9.53
2019-04-10T06:26:59.699Z,9.07
2019-04-10T06:29:28.809Z,10.27
2019-04-10T06:31:57.372Z,11.20
2019-04-10T06:34:25.967Z,9.30
2019-04-10T06:36:54.508Z,8.70
2019-04-10T06:39:22.969Z,10.60
2019-04-10T06:41:51.794Z,9.83
2019-04-10T06:44:20.297Z,9.93
2019-04-10T06:46:48.743Z,9.80
2019-04-10T06:49:17.237Z,10.53
2019-04-10T06:51:45.715Z,9.40
2019-04-10T06:54:14.429Z,10.03
2019-04-10T06:56:43.100Z,10.30
2019-04-10T06:59:12.182Z,10.03
2019-04-10T07:01:50.464Z,9.50
2019-04-10T07:04:11.483Z,10.97
2019-04-10T07:06:53.876Z,8.30
2019-04-10T07:09:12.014Z,9.30
2019-04-10T07:11:40.676Z,9.63
2019-04-10T07:14:13.458Z,11.30
2019-04-10T07:16:40.236Z,11.93
2019-04-10T07:19:11.555Z,11.33
2019-04-10T07:21:39.096Z,11.50
2019-04-10T07:24:09.512Z,13.00
2019-04-10T07:26:42.190Z,11.40
2019-04-10T07:29:08.966Z,12.37
2019-04-10T07:31:38.272Z,11.73
2019-04-10T07:34:08.839Z,10.67
2019-04-10T07:36:41.462Z,12.63
2019-04-10T07:39:07.880Z,11.93
2019-04-10T07:41:37.635Z,12.53
2019-04-10T07:44:06.377Z,13.43
2019-04-10T07:46:35.108Z,12.20
2019-04-10T07:49:03.630Z,14.07
2019-04-10T07:51:32.086Z,14.83
2019-04-10T07:54:00.559Z,13.10
2019-04-10T07:56:29.152Z,15.30
2019-04-10T07:58:57.607Z,12.70
2019-04-10T08:01:26.386Z,13.63
2019-04-10T08:03:55.614Z,13.50
2019-04-10T08:06:25.555Z,13.70
2019-04-10T08:08:55.397Z,12.17
2019-04-10T08:11:24.068Z,13.37
2019-04-10T08:13:53.287Z,14.10
2019-04-10T08:16:23.217Z,14.20
2019-04-10T08:18:52.175Z,14.00
2019-04-10T08:21:21.766Z,13.50
2019-04-10T08:23:51.478Z,12.43
2019-04-10T08:26:21.290Z,15.03
2019-04-10T08:28:49.944Z,13.90
2019-04-10T08:31:19.033Z,12.87
2019-04-10T08:33:47.586Z,11.87
2019-04-10T08:36:16.144Z,12.00
2019-04-10T08:38:44.611Z,10.70
2019-04-10T08:41:13.093Z,12.10
2019-04-10T08:43:41.729Z,9.90
2019-04-10T08:46:10.848Z,11.63
2019-04-10T08:48:39.573Z,12.73
2019-04-10T08:51:08.668Z,11.60
2019-04-10T08:53:38.292Z,11.63
2019-04-10T08:56:06.965Z,11.13
2019-04-10T08:58:35.416Z,12.27
2019-04-10T09:01:05.017Z,13.80
2019-04-10T09:03:33.618Z,12.87
2019-04-10T09:06:02.889Z,11.40
2019-04-10T09:08:31.448Z,11.80
2019-04-10T09:11:00.969Z,10.47
2019-04-10T09:13:30.672Z,10.47
2019-04-10T09:16:00.356Z,12.43
2019-04-10T09:18:29.522Z,10.43
2019-04-10T09:20:59.316Z,13.10
2019-04-10T09:23:38.914Z,12.33
2019-04-10T09:25:58.124Z,12.37
2019-04-10T09:28:28.605Z,12.07
2019-04-10T09:30:57.418Z,13.70
2019-04-10T09:33:29.094Z,13.30
2019-04-10T09:35:57.162Z,13.27
2019-04-10T09:38:26.473Z,15.90
2019-04-10T09:40:55.294Z,13.57
2019-04-10T09:43:23.819Z,13.17
2019-04-10T09:45:52.295Z,12.60
2019-04-10T09:48:22.145Z,12.63
2019-04-10T09:50:50.763Z,13.00
2019-04-10T09:53:19.230Z,12.43
2019-04-10T09:55:48.929Z,14.60
2019-04-10T09:58:17.652Z,12.83
2019-04-10T10:00:46.114Z,13.20
2019-04-10T10:03:15.294Z,14.03
2019-04-10T10:05:44.604Z,13.03
2019-04-10T10:08:14.158Z,11.47
2019-04-10T10:10:42.801Z,13.30
2019-04-10T10:13:11.262Z,12.60
2019-04-10T10:15:39.739Z,12.40
2019-04-10T10:18:08.878Z,11.43
2019-04-10T10:20:37.739Z,11.83
2019-04-10T10:23:06.434Z,11.87
2019-04-10T10:25:35.374Z,10.93
2019-04-10T10:28:04.968Z,9.77
2019-04-10T10:30:33.760Z,9.50
2019-04-10T10:33:03.507Z,11.47
2019-04-10T10:35:32.191Z,10.77
2019-04-10T10:38:01.088Z,11.30
2019-04-10T10:40:29.892Z,11.37
2019-04-10T10:42:58.337Z,10.80
2019-04-10T10:45:27.028Z,10.77
2019-04-10T10:47:56.723Z,9.40
2019-04-10T10:50:26.442Z,7.30
2019-04-10T10:52:55.554Z,8.50
2019-04-10T10:55:25.329Z,9.60
2019-04-10T10:57:53.924Z,8.17
2019-04-10T11:00:23.091Z,8.80
2019-04-10T11:02:51.967Z,8.50
2019-04-10T11:05:21.142Z,9.43
2019-04-10T11:07:51.378Z,9.03
2019-04-10T11:10:24.100Z,8.23
2019-04-10T11:12:50.716Z,8.83
2019-04-10T11:15:20.403Z,8.90
2019-04-10T11:17:50.003Z,8.67
2019-04-10T11:20:19.942Z,9.73
2019-04-10T11:22:49.641Z,9.77
2019-04-10T11:25:18.330Z,9.80
2019-04-10T11:27:47.536Z,10.17
2019-04-10T11:30:16.795Z,10.63
2019-04-10T11:32:46.309Z,9.90
2019-04-10T11:35:15.576Z,10.20
2019-04-10T11:40:17.603Z,9.77
2019-04-10T11:42:46.799Z,10.20
2019-04-10T11:45:17.051Z,9.60
2019-04-10T11:47:47.630Z,9.60
2019-04-10T11:50:18.491Z,10.27
2019-04-10T11:55:21.347Z,10.67
2019-04-10T11:57:49.166Z,10.70
2019-04-10T12:00:23.701Z,9.10
2019-04-10T12:02:53.526Z,10.30
2019-04-10T12:05:25.247Z,9.93
2019-04-10T12:08:16.001Z,9.53
2019-04-10T12:12:54.228Z,11.03
2019-04-10T12:15:23.886Z,10.20
2019-04-10T12:17:52.443Z,9.50
2019-04-10T12:20:20.982Z,9.90
2019-04-10T12:22:49.570Z,11.40
2019-04-10T12:25:18.687Z,10.17
2019-04-10T12:27:47.447Z,11.03
2019-04-10T12:30:17.319Z,8.87
2019-04-10T12:32:46.423Z,10.67
2019-04-10T12:35:17.104Z,9.43
2019-04-10T12:37:45.819Z,8.03
2019-04-10T12:40:14.446Z,7.50
2019-04-10T12:42:43.952Z,8.07
2019-04-10T12:45:13.568Z,8.27
2019-04-10T12:47:42.158Z,7.63
2019-04-10T12:50:12.061Z,7.63
2019-04-10T12:52:40.981Z,8.20
2019-04-10T12:55:10.712Z,8.87
2019-04-10T12:57:39.203Z,7.60
2019-04-10T13:00:11.926Z,6.90
2019-04-10T13:02:40.791Z,7.83
2019-04-10T13:05:09.388Z,7.97
2019-04-10T13:07:38.024Z,7.00
2019-04-10T13:10:07.266Z,6.67
2019-04-10T13:12:35.742Z,8.20
2019-04-10T13:15:08.569Z,7.70
2019-04-10T13:17:37.098Z,7.30
2019-04-10T13:20:09.288Z,7.60
2019-04-10T13:22:38.128Z,7.40
2019-04-10T13:25:06.726Z,9.00
2019-04-10T13:27:35.188Z,7.87
2019-04-10T13:30:11.029Z,8.10
2019-04-10T13:32:38.119Z,9.00
2019-04-10T13:35:10.400Z,9.20
2019-04-10T13:37:38.974Z,8.83
2019-04-10T13:40:07.758Z,7.63
2019-04-10T13:42:37.180Z,8.37
2019-04-10T13:45:07.222Z,7.87
2019-04-10T13:47:35.781Z,8.23
2019-04-10T13:50:08.484Z,9.20
2019-04-10T13:52:38.804Z,8.53
2019-04-10T13:55:08.870Z,8.93
2019-04-10T13:57:39.231Z,8.30
2019-04-10T14:00:09.641Z,9.50
2019-04-10T14:02:38.167Z,9.47
2019-04-10T14:05:13.739Z,9.20
2019-04-10T14:07:42.332Z,9.40
2019-04-10T14:10:12.523Z,9.00
2019-04-10T14:12:41.001Z,9.80
2019-04-10T14:15:09.869Z,8.90
2019-04-10T14:17:38.559Z,8.47
2019-04-10T14:20:07.605Z,8.23
2019-04-10T14:22:38.037Z,8.53
2019-04-10T14:25:09.602Z,7.60
2019-04-10T14:27:38.499Z,6.63
2019-04-10T14:30:11.219Z,7.60
2019-04-10T14:32:39.933Z,7.00
2019-04-10T14:35:09.900Z,6.23
2019-04-10T14:37:38.487Z,5.90
2019-04-10T14:40:08.904Z,6.17
2019-04-10T14:42:38.387Z,6.10
2019-04-10T14:45:09.035Z,6.30
2019-04-10T14:47:37.572Z,6.23
2019-04-10T14:50:07.400Z,6.80
2019-04-10T14:52:37.172Z,6.40
2019-04-10T14:55:06.210Z,5.47
2019-04-10T14:57:35.000Z,5.83
2019-04-10T15:00:08.602Z,5.97
2019-04-10T15:02:37.097Z,6.10
2019-04-10T15:05:07.926Z,5.60
2019-04-10T15:07:37.267Z,5.43
2019-04-10T15:10:06.717Z,5.60
2019-04-10T15:12:35.179Z,6.30
2019-04-10T15:15:04.300Z,5.80
2019-04-10T15:17:32.933Z,5.77
2019-04-10T15:20:01.476Z,5.93
2019-04-10T15:22:29.974Z,5.87
2019-04-10T15:24:59.344Z,6.50
2019-04-10T15:27:27.838Z,5.87
2019-04-10T15:29:56.790Z,5.80
2019-04-10T15:32:25.381Z,5.10
2019-04-10T15:34:53.835Z,5.60
2019-04-10T15:37:22.884Z,6.33
2019-04-10T15:39:51.893Z,5.90
2019-04-10T15:42:20.378Z,5.00
2019-04-10T15:44:48.872Z,5.70
2019-04-10T15:47:22.162Z,5.20
2019-04-10T15:49:47.933Z,5.80
2019-04-10T15:52:17.584Z,5.37
2019-04-10T15:54:46.251Z,5.00
2019-04-10T15:57:14.753Z,5.83
2019-04-10T15:59:44.163Z,6.00
2019-04-10T16:02:13.701Z,5.80
2019-04-10T16:04:42.373Z,5.10
2019-04-10T16:07:11.938Z,5.40
2019-04-10T16:09:47.677Z,5.90
2019-04-10T16:12:16.471Z,5.30
2019-04-10T16:14:46.476Z,5.63
2019-04-10T16:17:23.864Z,4.50
2019-04-10T16:19:59.886Z,5.27
2019-04-10T16:22:35.938Z,4.67
2019-04-10T16:25:09.498Z,4.63
2019-04-10T16:27:39.089Z,4.90
2019-04-10T16:30:10.267Z,5.20
2019-04-10T16:32:39.690Z,4.57
2019-04-10T16:35:09.332Z,5.03
2019-04-10T16:37:37.886Z,4.50
2019-04-10T16:40:10.030Z,4.53
2019-04-10T16:42:39.911Z,4.73
2019-04-10T16:45:08.196Z,4.50
2019-04-10T16:47:36.669Z,5.13
2019-04-10T16:50:06.874Z,3.33
2019-04-10T16:52:35.401Z,4.47
2019-04-10T16:55:06.234Z,4.60
2019-04-10T16:57:36.689Z,4.50
2019-04-10T17:00:06.993Z,4.73
2019-04-10T17:02:36.016Z,5.37
2019-04-10T17:05:08.101Z,4.67
2019-04-10T17:07:37.376Z,4.67
2019-04-10T17:10:14.901Z,4.70
2019-04-10T17:12:38.218Z,4.50
2019-04-10T17:15:08.511Z,4.50
2019-04-10T17:17:36.961Z,3.93
2019-04-10T17:20:08.778Z,4.00
2019-04-10T17:22:43.493Z,4.27
2019-04-10T17:25:07.736Z,3.53
2019-04-10T17:27:37.294Z,4.17
2019-04-10T17:30:07.790Z,3.73
2019-04-10T17:32:36.399Z,3.70
2019-04-10T17:35:07.611Z,4.20
2019-04-10T17:37:38.082Z,3.30
2019-04-10T17:40:24.954Z,4.40
2019-04-10T17:42:44.315Z,3.90
2019-04-10T17:45:14.201Z,3.70
2019-04-10T17:47:42.971Z,3.33
2019-04-10T17:50:14.122Z,3.57
2019-04-10T17:52:42.948Z,3.37
2019-04-10T17:55:11.806Z,4.97
2019-04-10T17:57:44.156Z,3.30
2019-04-10T18:00:27.133Z,3.97
2019-04-10T18:02:57.058Z,3.03
2019-04-10T18:05:26.578Z,2.83
2019-04-10T18:07:55.226Z,3.17
2019-04-10T18:10:24.693Z,3.60
2019-04-10T18:12:54.606Z,2.73
2019-04-10T18:15:24.118Z,3.20
2019-04-10T18:17:53.448Z,3.03
2019-04-10T18:20:22.130Z,2.70
2019-04-10T18:22:51.841Z,2.87
2019-04-10T18:25:20.439Z,2.50
2019-04-10T18:27:49.163Z,2.80
2019-04-10T18:30:18.204Z,3.13
2019-04-10T18:32:47.625Z,3.00
2019-04-10T18:35:16.466Z,2.70
2019-04-10T18:37:44.994Z,3.20
2019-04-10T18:40:13.477Z,3.17
2019-04-10T18:42:41.933Z,2.60
2019-04-10T18:45:11.256Z,3.30
2019-04-10T18:47:39.831Z,2.60
2019-04-10T18:50:09.869Z,2.40
2019-04-10T18:52:39.315Z,2.47
2019-04-10T18:55:08.156Z,2.67
2019-04-10T18:57:41.006Z,2.40
2019-04-10T19:00:28.134Z,3.10
2019-04-10T19:03:05.374Z,3.20
2019-04-10T19:05:36.920Z,2.70
2019-04-10T19:08:07.078Z,2.30
2019-04-10T19:10:36.625Z,3.33
2019-04-10T19:13:05.562Z,2.90
2019-04-10T19:15:35.046Z,3.13
2019-04-10T19:18:03.733Z,2.80
2019-04-10T19:20:33.079Z,3.03
2019-04-10T19:23:01.683Z,2.73
2019-04-10T19:25:30.314Z,2.93
2019-04-10T19:27:58.836Z,3.07
2019-04-10T19:30:47.681Z,2.40
2019-04-10T19:33:16.468Z,3.13
2019-04-10T19:35:45.529Z,3.33
2019-04-10T19:38:14.082Z,3.00
2019-04-10T19:40:43.794Z,2.67
2019-04-10T19:43:13.673Z,2.83
2019-04-10T19:45:42.358Z,3.10
2019-04-10T19:48:10.931Z,3.33
2019-04-10T19:50:39.408Z,2.80
2019-04-10T19:53:08.874Z,2.67
2019-04-10T19:55:37.977Z,3.10
2019-04-10T19:58:06.578Z,3.20
2019-04-10T20:00:36.836Z,2.87
2019-04-10T20:03:05.734Z,2.97
2019-04-10T20:05:34.382Z,3.30
2019-04-10T20:08:02.836Z,3.07
2019-04-10T20:10:31.371Z,2.70
2019-04-10T20:12:59.838Z,3.23
2019-04-10T20:15:28.799Z,3.30
2019-04-10T20:17:57.526Z,2.80
2019-04-10T20:20:27.093Z,3.00
2019-04-10T20:22:56.301Z,3.70
2019-04-10T20:25:26.121Z,3.50
2019-04-10T20:27:54.703Z,2.87
2019-04-10T20:30:25.773Z,3.30
2019-04-10T20:32:54.483Z,3.33
2019-04-10T20:35:22.930Z,3.07
2019-04-10T20:37:51.388Z,3.60
2019-04-10T20:40:20.735Z,3.50
2019-04-10T20:42:49.298Z,3.40
2019-04-10T20:45:18.607Z,2.93
2019-04-10T20:47:47.095Z,3.87
2019-04-10T20:50:15.571Z,3.20
2019-04-10T20:52:45.202Z,3.37
2019-04-10T20:55:13.880Z,3.20
2019-04-10T20:57:42.338Z,3.20
2019-04-10T21:00:13.513Z,4.20
2019-04-10T21:02:42.631Z,3.87
2019-04-10T21:05:13.441Z,4.30
2019-04-10T21:07:41.377Z,3.50
2019-04-10T21:10:10.022Z,3.40
2019-04-10T21:12:39.782Z,3.20
2019-04-10T21:15:09.082Z,3.30
2019-04-10T21:17:37.710Z,3.67
2019-04-10T21:20:07.981Z,4.23
2019-04-10T21:22:36.452Z,4.53
2019-04-10T21:25:06.241Z,4.03
2019-04-10T21:27:35.496Z,4.17
2019-04-10T21:30:22.675Z,3.73
2019-04-10T21:32:56.845Z,3.10
2019-04-10T21:35:37.121Z,3.77
2019-04-10T21:38:06.733Z,4.50
2019-04-10T21:40:35.393Z,3.30
2019-04-10T21:43:03.905Z,3.70
2019-04-10T21:45:33.502Z,4.20
2019-04-10T21:48:02.191Z,3.30
2019-04-10T21:50:30.728Z,4.50
2019-04-10T21:52:59.654Z,3.10
2019-04-10T21:55:29.076Z,3.60
2019-04-10T21:57:57.717Z,3.50
2019-04-10T22:00:44.938Z,3.87
2019-04-10T22:03:13.666Z,3.87
2019-04-10T22:05:44.539Z,3.80
2019-04-10T22:08:33.635Z,3.97
2019-04-10T22:11:02.206Z,3.60
2019-04-10T22:13:30.995Z,3.90
2019-04-10T22:15:59.740Z,4.80
2019-04-10T22:18:28.217Z,3.77
2019-04-10T22:20:57.229Z,3.90
2019-04-10T22:23:26.943Z,3.57
2019-04-10T22:25:56.329Z,4.60
2019-04-10T22:28:25.357Z,4.27
2019-04-10T22:30:54.718Z,4.50
2019-04-10T22:33:24.387Z,4.40
2019-04-10T22:35:52.947Z,4.03
2019-04-10T22:38:21.605Z,4.20
2019-04-10T22:40:50.342Z,4.47
2019-04-10T22:43:18.906Z,3.80
2019-04-10T22:45:48.601Z,4.30
2019-04-10T22:48:17.142Z,4.57
2019-04-10T22:50:45.603Z,4.40
2019-04-10T22:53:15.089Z,3.60
2019-04-10T22:55:44.432Z,4.47
2019-04-10T22:58:12.944Z,5.03
2019-04-10T23:00:41.815Z,4.37
2019-04-10T23:03:11.392Z,4.70
2019-04-10T23:05:40.657Z,3.60
2019-04-10T23:08:09.461Z,4.00
2019-04-10T23:10:39.175Z,4.30
2019-04-10T23:13:08.911Z,4.63
2019-04-10T23:15:39.740Z,5.63
2019-04-10T23:18:09.552Z,5.77
2019-04-10T23:20:38.113Z,4.30
2019-04-10T23:23:06.621Z,4.60
2019-04-10T23:25:36.319Z,4.23
2019-04-10T23:28:05.202Z,3.80
2019-04-10T23:30:33.677Z,5.00
2019-04-10T23:33:02.139Z,4.47
2019-04-10T23:35:31.618Z,4.97
2019-04-10T23:38:01.384Z,4.20
2019-04-10T23:40:30.002Z,4.00
2019-04-10T23:49:56.048Z,4.20
2019-04-10T23:52:25.500Z,4.07
2019-04-10T23:54:54.048Z,4.80
2019-04-10T23:57:22.553Z,4.93
2019-04-10T23:59:51.094Z,5.28
